Beaver Bay, MN (55601)

8:50 AM CDT on September 02, 2015 (GMT -0500)
Silver Bay Safeharbor | | Change Station
CLOSE
Current Station
Personal Weather Station
Location: Silver Bay, MN
Elevation: 607 ft
Nearby Weather Stations

Elev 607 ft 47.27 °N, 91.28 °W | Updated 6 minutes ago

Thunderstorm
Thunderstorm
62.6 °F
Feels Like 62.6 °F
N
2.7
Wind Variable Wind from West

Today
High -- | Low -- °F
--% Chance of Precip.
Yesterday
High -- | Low -- °F
Precip. -- in
6:25 AM 7:43 PM
Waning Gibbous, 80% visible
Pressure 30.02 in
Visibility 5.0 miles
Clouds Scattered Clouds 1600 ft
Mostly Cloudy 3700 ft
Overcast 4700 ft
Dew Point 62 °F
Humidity 99%
Rainfall 1.59 in
Snow Depth Not available.
UV 0 out of 12
Pollen 9.00 out of 12
Air Quality Not available.
Flu Activity Not available.
METAR KBFW 021335Z AUTO 21003KT 5SM -TSRA SCT016 BKN037 OVC047 19/18 A3002 RMK AO2 P0020 LTG DSNT ALQDS
Pressure 30.02 in
Visibility 5.0 miles
Clouds Scattered Clouds 1600 ft
Mostly Cloudy 3700 ft
Overcast 4700 ft
Dew Point 62 °F
Humidity 99%
Rainfall 1.59 in
Snow Depth Not available.
UV 0 out of 12
Pollen 9.00 out of 12
Air Quality Not available.
Flu Activity Not available.
METAR KBFW 021335Z AUTO 21003KT 5SM -TSRA SCT016 BKN037 OVC047 19/18 A3002 RMK AO2 P0020 LTG DSNT ALQDS

10-Day Weather Forecast

×

Almanac

Astronomy

Sep. 02, 2015 Rise Set
Actual Time
Civil Twilight
Nautical Twilight
Astronomical Twilight
Moon
Length of Visible Light
Length of Day
Tomorrow will be .
, % of the Moon is Illuminated

Today's Extremes

State Highs State Lows

Community

WunderPhotos

Upload Photos

1,851,754 photos uploaded!

WunderBlogs® & News

Nearby

Air Quality

  Air Quality AQ Index Pollutant
Not available.

Snow Depth

Station Depth Elevation

Earthquake Activity

City Distance Mag. Time & Date
Minimum magnitude displayed is 2.5.

Coastal Water Temperatures

Place Temperature

Stations

Nearby Weather Stations

Station Location Temp. Windchill Dew Point Humidity Wind Precip. Elev Updated Type